Time;durP1;ratioP1;P1;durP2;ratioP2;P2;SDS_P1;SDS_P2;PMS_P1;PMS_P2;Temp;Humidity;BMP_temperature;BMP_pressure;BME280_temperature;BME280_humidity;BME280_pressure;Samples;Min_cycle;Max_cycle;Signal;HPM_P1;HPM_P2
2023/08/18 04:17:04;;;;;;;;;20.50;20.50;;;;;;;;6488986;39;15507;-53
2023/08/18 04:23:08;;;;;;;;;22.25;20.00;;;;;;;;6490995;39;9584;-53
2023/08/18 04:29:10;;;;;;;;;21.75;19.75;;;;;;;;6490609;46;9063;-54
2023/08/18 04:35:13;;;;;;;;;21.00;19.25;;;;;;;;6489146;39;9065;-55
2023/08/18 04:41:16;;;;;;;;;21.00;21.00;;;;;;;;6489742;46;8913;-53
2023/08/18 04:47:19;;;;;;;;;21.25;20.50;;;;;;;;6489903;31;8961;-51
2023/08/18 04:53:23;;;;;;;;;23.00;22.00;;;;;;;;6488426;39;8978;-52
2023/08/18 04:59:27;;;;;;;;;22.25;20.25;;;;;;;;6490502;46;8834;-52
2023/08/18 05:05:39;;;;;;;;;24.00;20.75;;;;;;;;6489461;31;8893;-54
2023/08/18 05:11:42;;;;;;;;;23.75;21.75;;;;;;;;6488740;39;8955;-51
2023/08/18 05:17:45;;;;;;;;;21.25;21.00;;;;;;;;6490877;39;8858;-54
2023/08/18 05:23:47;;;;;;;;;22.00;21.00;;;;;;;;6489729;31;9535;-56
2023/08/18 05:29:52;;;;;;;;;21.75;21.75;;;;;;;;6490907;46;8967;-54
2023/08/18 05:35:59;;;;;;;;;24.50;23.75;;;;;;;;6490037;39;8839;-56
2023/08/18 05:42:02;;;;;;;;;26.75;25.25;;;;;;;;6489237;39;8922;-55
2023/08/18 05:48:04;;;;;;;;;28.00;24.50;;;;;;;;6490236;31;8927;-52
2023/08/18 05:54:07;;;;;;;;;23.25;22.00;;;;;;;;6489820;39;8994;-51
2023/08/18 06:00:13;;;;;;;;;21.25;21.25;;;;;;;;6490194;31;8999;-50
2023/08/18 06:06:15;;;;;;;;;24.50;24.50;;;;;;;;6489920;31;8931;-53
2023/08/18 06:12:17;;;;;;;;;28.25;24.75;;;;;;;;6489689;39;8950;-52
2023/08/18 06:18:22;;;;;;;;;26.50;23.50;;;;;;;;6487197;36;122204;-55
2023/08/18 06:24:25;;;;;;;;;23.25;23.25;;;;;;;;6488247;39;8873;-53
2023/08/18 06:30:27;;;;;;;;;22.00;21.25;;;;;;;;6488063;39;9661;-55
2023/08/18 06:36:30;;;;;;;;;26.75;24.50;;;;;;;;6487329;31;8911;-53
2023/08/18 06:42:32;;;;;;;;;26.50;24.50;;;;;;;;6486328;47;8982;-59
2023/08/18 06:48:34;;;;;;;;;25.75;25.75;;;;;;;;6486299;39;8958;-60
2023/08/18 06:54:39;;;;;;;;;27.50;27.50;;;;;;;;6486045;39;8946;-59
2023/08/18 07:00:43;;;;;;;;;20.25;19.00;;;;;;;;6487084;39;9196;-60
2023/08/18 07:06:47;;;;;;;;;25.00;24.00;;;;;;;;6483972;47;9056;-59
2023/08/18 07:12:53;;;;;;;;;18.25;18.00;;;;;;;;6486783;39;9049;-60
2023/08/18 07:18:56;;;;;;;;;23.75;22.50;;;;;;;;6488921;39;9566;-59
2023/08/18 07:24:58;;;;;;;;;26.75;26.75;;;;;;;;6487880;31;9027;-58
2023/08/18 07:31:03;;;;;;;;;22.75;22.75;;;;;;;;6489206;39;8938;-59
2023/08/18 07:37:06;;;;;;;;;25.25;25.25;;;;;;;;6486002;46;8911;-59
2023/08/18 07:43:15;;;;;;;;;26.00;24.50;;;;;;;;6487582;39;8902;-61
2023/08/18 07:49:27;;;;;;;;;25.00;25.00;;;;;;;;6488648;46;8969;-59
2023/08/18 07:55:30;;;;;;;;;21.50;21.50;;;;;;;;6489378;39;8972;-59
2023/08/18 08:01:34;;;;;;;;;19.75;19.00;;;;;;;;6488493;39;8989;-61
2023/08/18 08:07:36;;;;;;;;;24.50;23.25;;;;;;;;6484199;39;9089;-59
2023/08/18 08:13:40;;;;;;;;;21.50;21.50;;;;;;;;6487271;39;8946;-60
2023/08/18 08:19:43;;;;;;;;;22.25;21.25;;;;;;;;6488707;39;8903;-60
2023/08/18 08:25:47;;;;;;;;;23.00;23.00;;;;;;;;6488249;46;9035;-59
2023/08/18 08:31:51;;;;;;;;;29.25;29.25;;;;;;;;6487961;46;8946;-59
2023/08/18 08:37:53;;;;;;;;;20.75;19.00;;;;;;;;6488522;39;8916;-61
2023/08/18 08:43:57;;;;;;;;;21.50;20.25;;;;;;;;6488333;39;9636;-59
2023/08/18 08:50:03;;;;;;;;;21.75;20.25;;;;;;;;6487720;31;8978;-58
2023/08/18 08:56:07;;;;;;;;;39.75;33.25;;;;;;;;6486454;46;8907;-59
2023/08/18 09:02:11;;;;;;;;;22.75;20.50;;;;;;;;6487577;39;9057;-61
2023/08/18 09:08:13;;;;;;;;;20.25;20.00;;;;;;;;6487000;39;8977;-61
2023/08/18 09:14:21;;;;;;;;;21.50;20.75;;;;;;;;6488160;31;8959;-60
2023/08/18 09:20:25;;;;;;;;;23.75;23.75;;;;;;;;6485981;46;8910;-59
2023/08/18 09:26:34;;;;;;;;;21.75;21.75;;;;;;;;6486366;31;8903;-60
2023/08/18 09:32:37;;;;;;;;;25.00;25.00;;;;;;;;6486675;31;8932;-59
2023/08/18 09:38:44;;;;;;;;;22.00;21.50;;;;;;;;6484418;46;8962;-60
2023/08/18 09:44:49;;;;;;;;;43.25;36.50;;;;;;;;6487018;39;8918;-58
2023/08/18 09:50:54;;;;;;;;;22.75;22.75;;;;;;;;6487741;39;8920;-59
2023/08/18 09:57:07;;;;;;;;;27.75;26.75;;;;;;;;6487149;39;8907;-59
2023/08/18 10:03:16;;;;;;;;;28.25;28.00;;;;;;;;6488132;31;9174;-59
2023/08/18 10:09:22;;;;;;;;;28.75;27.00;;;;;;;;6486602;47;8997;-60
2023/08/18 10:15:26;;;;;;;;;36.75;30.50;;;;;;;;6485880;31;8958;-59
2023/08/18 10:21:29;;;;;;;;;22.25;21.75;;;;;;;;6485430;39;8908;-60
2023/08/18 10:27:37;;;;;;;;;28.00;27.00;;;;;;;;6485339;31;8923;-59
2023/08/18 10:33:47;;;;;;;;;24.25;24.25;;;;;;;;6487397;47;8902;-59
2023/08/18 10:39:50;;;;;;;;;20.25;20.25;;;;;;;;6486597;39;8909;-58
2023/08/18 10:46:00;;;;;;;;;30.00;29.25;;;;;;;;6487766;39;9565;-60
2023/08/18 10:52:04;;;;;;;;;42.00;36.00;;;;;;;;6489221;31;8930;-61
2023/08/18 10:58:10;;;;;;;;;27.00;26.75;;;;;;;;6488510;46;8969;-59
2023/08/18 11:04:13;;;;;;;;;44.75;38.00;;;;;;;;6489204;39;8943;-61
2023/08/18 11:10:23;;;;;;;;;46.25;39.50;;;;;;;;6487774;39;9602;-59
2023/08/18 11:16:26;;;;;;;;;29.75;27.75;;;;;;;;6488646;31;8983;-61
2023/08/18 11:22:29;;;;;;;;;36.50;33.00;;;;;;;;6488326;46;8943;-62
2023/08/18 11:28:32;;;;;;;;;24.75;24.75;;;;;;;;6488302;39;9012;-58
2023/08/18 11:34:34;;;;;;;;;27.00;27.00;;;;;;;;6488626;39;8947;-60
2023/08/18 11:40:38;;;;;;;;;31.25;31.00;;;;;;;;6488483;31;9555;-59
2023/08/18 11:46:41;;;;;;;;;26.75;26.00;;;;;;;;6487719;39;8926;-60
2023/08/18 11:52:45;;;;;;;;;31.50;28.75;;;;;;;;6488960;39;9004;-59
2023/08/18 11:58:48;;;;;;;;;46.00;38.00;;;;;;;;6487417;31;8930;-61
2023/08/18 12:04:52;;;;;;;;;23.25;22.25;;;;;;;;6488475;39;9102;-58
2023/08/18 12:10:57;;;;;;;;;26.75;26.25;;;;;;;;6487472;39;8958;-58
2023/08/18 12:16:59;;;;;;;;;28.25;23.75;;;;;;;;6487860;39;8935;-59
2023/08/18 12:23:03;;;;;;;;;28.50;26.75;;;;;;;;6484950;39;8891;-59
2023/08/18 12:29:05;;;;;;;;;22.75;22.75;;;;;;;;6488143;39;8930;-60
2023/08/18 12:35:12;;;;;;;;;26.00;25.50;;;;;;;;6488394;46;8934;-59
2023/08/18 12:41:15;;;;;;;;;29.50;28.75;;;;;;;;6488691;39;9571;-60
2023/08/18 12:47:19;;;;;;;;;23.00;21.75;;;;;;;;6489190;39;8965;-61
2023/08/18 12:53:25;;;;;;;;;30.50;29.25;;;;;;;;6488315;39;8938;-60
2023/08/18 12:59:28;;;;;;;;;28.25;26.00;;;;;;;;6487220;31;8932;-59
2023/08/18 13:05:32;;;;;;;;;60.00;49.50;;;;;;;;6486231;31;8943;-57
2023/08/18 13:11:36;;;;;;;;;36.50;33.75;;;;;;;;6486308;46;9080;-58
2023/08/18 13:17:42;;;;;;;;;52.25;43.00;;;;;;;;6487677;39;9034;-60
2023/08/18 13:23:44;;;;;;;;;44.75;38.25;;;;;;;;6487772;46;8851;-59
2023/08/18 13:29:48;;;;;;;;;25.25;22.25;;;;;;;;6486307;39;9042;-59
2023/08/18 13:35:53;;;;;;;;;26.00;25.00;;;;;;;;6487389;31;8926;-59
2023/08/18 13:41:57;;;;;;;;;30.25;27.50;;;;;;;;6488075;31;8956;-59
2023/08/18 13:47:59;;;;;;;;;34.50;32.50;;;;;;;;6488004;31;9072;-59
2023/08/18 13:54:03;;;;;;;;;27.50;27.50;;;;;;;;6486685;31;8915;-58
2023/08/18 14:00:07;;;;;;;;;26.75;24.50;;;;;;;;6484967;39;8927;-59
2023/08/18 14:06:12;;;;;;;;;23.25;22.00;;;;;;;;6486268;46;8991;-60
2023/08/18 14:12:14;;;;;;;;;26.50;25.50;;;;;;;;6483646;47;8964;-60
2023/08/18 14:18:17;;;;;;;;;31.00;26.75;;;;;;;;6486702;31;8923;-60
2023/08/18 14:24:20;;;;;;;;;23.75;23.75;;;;;;;;6489150;39;8920;-58
2023/08/18 14:30:24;;;;;;;;;28.75;28.75;;;;;;;;6489894;39;8940;-59
2023/08/18 14:36:29;;;;;;;;;35.00;31.75;;;;;;;;6490197;39;8959;-60
2023/08/18 14:42:34;;;;;;;;;22.00;20.75;;;;;;;;6489532;31;8907;-61
2023/08/18 14:48:38;;;;;;;;;25.75;25.75;;;;;;;;6489878;39;8969;-60
2023/08/18 14:54:40;;;;;;;;;21.50;21.00;;;;;;;;6489615;39;9515;-60
2023/08/18 15:00:46;;;;;;;;;26.00;22.75;;;;;;;;6491052;31;9518;-59
2023/08/18 15:06:50;;;;;;;;;19.75;19.75;;;;;;;;6489075;46;8883;-60
2023/08/18 15:12:52;;;;;;;;;26.25;23.25;;;;;;;;6489753;39;8914;-58
2023/08/18 15:18:58;;;;;;;;;26.00;25.50;;;;;;;;6491216;31;8946;-60
2023/08/18 15:25:00;;;;;;;;;26.75;25.25;;;;;;;;6490516;39;8831;-59
2023/08/18 15:31:04;;;;;;;;;23.25;21.75;;;;;;;;6489289;39;9013;-61
2023/08/18 15:37:07;;;;;;;;;26.00;24.25;;;;;;;;6488894;46;8871;-60
2023/08/18 15:43:10;;;;;;;;;25.25;23.75;;;;;;;;6489020;31;8875;-60
2023/08/18 15:49:12;;;;;;;;;24.50;24.25;;;;;;;;6489830;31;8894;-61
2023/08/18 15:55:15;;;;;;;;;15.00;15.00;;;;;;;;6489248;46;8870;-59
2023/08/18 16:01:18;;;;;;;;;26.00;24.25;;;;;;;;6489281;46;8883;-60
2023/08/18 16:07:20;;;;;;;;;20.67;20.33;;;;;;;;6489073;39;8898;-60
2023/08/18 16:13:24;;;;;;;;;25.00;23.25;;;;;;;;6488821;31;8990;-59
2023/08/18 16:19:28;;;;;;;;;23.00;23.00;;;;;;;;6489384;46;8929;-60
2023/08/18 16:25:31;;;;;;;;;23.75;23.25;;;;;;;;6489139;39;9005;-58
2023/08/18 16:31:34;;;;;;;;;16.25;16.25;;;;;;;;6489217;46;8933;-58
2023/08/18 16:37:37;;;;;;;;;28.50;25.75;;;;;;;;6490028;31;8910;-59
2023/08/18 16:43:40;;;;;;;;;28.50;27.75;;;;;;;;6488563;46;8883;-59
2023/08/18 16:49:43;;;;;;;;;25.00;23.50;;;;;;;;6489488;39;8866;-59
2023/08/18 16:55:50;;;;;;;;;23.75;23.00;;;;;;;;6488981;39;8859;-61
2023/08/18 17:01:53;;;;;;;;;24.75;23.75;;;;;;;;6488915;46;8952;-60
2023/08/18 17:07:55;;;;;;;;;29.00;27.25;;;;;;;;6488862;39;8843;-59
2023/08/18 17:13:59;;;;;;;;;28.75;27.75;;;;;;;;6488899;39;8911;-59
2023/08/18 17:20:01;;;;;;;;;29.00;28.25;;;;;;;;6488310;39;8875;-60
2023/08/18 17:26:03;;;;;;;;;28.00;28.00;;;;;;;;6489147;39;8901;-59
2023/08/18 17:32:06;;;;;;;;;26.67;25.67;;;;;;;;6488519;39;8891;-59
2023/08/18 17:38:10;;;;;;;;;20.50;18.00;;;;;;;;6488886;39;8925;-59
2023/08/18 17:44:13;;;;;;;;;22.75;22.75;;;;;;;;6488308;39;8905;-58
2023/08/18 17:50:15;;;;;;;;;24.25;22.25;;;;;;;;6488064;31;8895;-58
2023/08/18 17:56:19;;;;;;;;;23.25;22.50;;;;;;;;6487108;46;8886;-61
2023/08/18 18:02:22;;;;;;;;;24.00;22.75;;;;;;;;6488274;46;8907;-59
2023/08/18 18:08:26;;;;;;;;;21.50;21.00;;;;;;;;6488561;39;8871;-58
2023/08/18 18:14:29;;;;;;;;;22.25;20.25;;;;;;;;6488270;47;8923;-59
2023/08/18 18:20:32;;;;;;;;;21.25;21.25;;;;;;;;6488273;31;9001;-60
2023/08/18 18:26:34;;;;;;;;;21.00;20.25;;;;;;;;6488655;39;8913;-59
2023/08/18 18:32:37;;;;;;;;;20.00;18.75;;;;;;;;6488473;39;8909;-60
2023/08/18 18:38:40;;;;;;;;;22.75;22.50;;;;;;;;6488285;39;8993;-59
2023/08/18 18:44:44;;;;;;;;;25.25;24.50;;;;;;;;6487882;31;8859;-59
2023/08/18 18:50:46;;;;;;;;;27.75;24.50;;;;;;;;6487076;47;8855;-60
2023/08/18 18:56:50;;;;;;;;;24.50;21.50;;;;;;;;6488514;39;9479;-60
2023/08/18 19:02:52;;;;;;;;;21.25;20.25;;;;;;;;6488489;31;8871;-59
2023/08/18 19:08:55;;;;;;;;;31.50;30.75;;;;;;;;6488509;39;8915;-60
2023/08/18 19:14:59;;;;;;;;;21.75;21.75;;;;;;;;6490516;31;8950;-58
2023/08/18 19:21:05;;;;;;;;;20.75;20.75;;;;;;;;6490414;39;8870;-60
2023/08/18 19:27:08;;;;;;;;;25.50;24.25;;;;;;;;6489719;46;8871;-59
2023/08/18 19:33:14;;;;;;;;;24.75;23.50;;;;;;;;6489734;46;8902;-59
2023/08/18 19:39:18;;;;;;;;;25.75;25.25;;;;;;;;6489634;31;8891;-60
2023/08/18 19:45:20;;;;;;;;;26.25;25.00;;;;;;;;6489656;39;8898;-59
2023/08/18 19:51:23;;;;;;;;;20.25;19.75;;;;;;;;6490774;39;8975;-62
2023/08/18 19:57:30;;;;;;;;;23.50;21.50;;;;;;;;6489096;46;8962;-60
2023/08/18 20:03:33;;;;;;;;;20.50;19.50;;;;;;;;6489951;39;8951;-59
2023/08/18 20:09:36;;;;;;;;;17.75;16.75;;;;;;;;6489251;31;8929;-60
2023/08/18 20:15:38;;;;;;;;;17.75;17.50;;;;;;;;6489675;39;8895;-58
2023/08/18 20:21:42;;;;;;;;;16.75;16.25;;;;;;;;6488871;31;8831;-61
2023/08/18 20:27:47;;;;;;;;;17.75;17.25;;;;;;;;6490082;31;8873;-59
2023/08/18 20:33:49;;;;;;;;;21.75;21.00;;;;;;;;6489167;46;8882;-59
2023/08/18 20:39:52;;;;;;;;;18.50;18.50;;;;;;;;6489169;39;8887;-59
2023/08/18 20:45:56;;;;;;;;;20.50;19.25;;;;;;;;6489805;39;8965;-58
2023/08/18 20:51:58;;;;;;;;;18.25;16.25;;;;;;;;6488664;39;8894;-59
2023/08/18 20:58:00;;;;;;;;;19.00;18.25;;;;;;;;6487720;46;8867;-59
2023/08/18 21:04:03;;;;;;;;;20.50;20.50;;;;;;;;5948311;39;10001673;-58
2023/08/18 21:10:11;;;;;;;;;25.50;21.50;;;;;;;;6487741;46;8962;-60
2023/08/18 21:16:14;;;;;;;;;17.50;17.50;;;;;;;;6488784;46;8903;-58
2023/08/18 21:22:17;;;;;;;;;19.25;18.50;;;;;;;;6489593;31;9022;-58
2023/08/18 21:28:21;;;;;;;;;19.50;19.50;;;;;;;;6488856;31;8954;-58
2023/08/18 21:34:25;;;;;;;;;25.75;23.75;;;;;;;;6488973;39;8863;-58
2023/08/18 21:40:28;;;;;;;;;20.50;18.25;;;;;;;;6488158;46;8859;-60
2023/08/18 21:46:33;;;;;;;;;20.50;20.50;;;;;;;;6489081;31;8927;-59
2023/08/18 21:52:35;;;;;;;;;19.25;18.00;;;;;;;;6488724;39;8894;-58
2023/08/18 21:58:39;;;;;;;;;18.50;18.25;;;;;;;;6488031;31;9438;-58
2023/08/18 22:04:41;;;;;;;;;16.00;16.00;;;;;;;;6488435;39;8934;-59
2023/08/18 22:10:44;;;;;;;;;19.75;18.00;;;;;;;;6487035;31;8910;-58
2023/08/18 22:16:47;;;;;;;;;14.75;14.50;;;;;;;;6487808;39;9013;-59
2023/08/18 22:22:50;;;;;;;;;17.00;17.00;;;;;;;;6487828;31;8884;-59
2023/08/18 22:28:52;;;;;;;;;20.50;20.50;;;;;;;;6486895;39;8913;-58
2023/08/18 22:34:55;;;;;;;;;22.25;19.00;;;;;;;;6487758;31;8887;-59
2023/08/18 22:40:59;;;;;;;;;22.25;20.75;;;;;;;;6487276;39;9318;-58
2023/08/18 22:47:19;;;;;;;;;22.75;20.75;;;;;;;;6489591;39;8937;-58
2023/08/18 22:53:21;;;;;;;;;21.00;20.00;;;;;;;;6489355;39;8993;-60
2023/08/18 22:59:23;;;;;;;;;13.50;11.50;;;;;;;;6489779;39;9630;-58
2023/08/18 23:05:26;;;;;;;;;19.00;19.00;;;;;;;;6490122;31;8843;-59
2023/08/18 23:11:28;;;;;;;;;23.75;22.50;;;;;;;;6489573;46;8930;-58
2023/08/18 23:17:32;;;;;;;;;18.25;17.25;;;;;;;;6489819;46;8835;-59
2023/08/18 23:23:35;;;;;;;;;22.00;21.75;;;;;;;;6489926;39;8949;-59
2023/08/18 23:29:41;;;;;;;;;21.50;20.25;;;;;;;;6490784;31;8890;-62
2023/08/18 23:35:45;;;;;;;;;18.75;17.25;;;;;;;;6490718;39;8883;-59
2023/08/18 23:41:48;;;;;;;;;22.00;21.50;;;;;;;;6489158;39;8899;-58
2023/08/18 23:47:51;;;;;;;;;19.00;18.00;;;;;;;;6489974;39;9479;-59
2023/08/18 23:53:54;;;;;;;;;18.50;17.00;;;;;;;;6308123;39;10001409;-58
2023/08/18 23:59:57;;;;;;;;;20.00;19.00;;;;;;;;6490026;39;8887;-59
